Time;durP1;ratioP1;P1;durP2;ratioP2;P2;SDS_P1;SDS_P2;PMS_P1;PMS_P2;Temp;Humidity;BMP_temperature;BMP_pressure;BME280_temperature;BME280_humidity;BME280_pressure;Samples;Min_cycle;Max_cycle;Signal;HPM_P1;HPM_P2
2022/10/30 00:00:50;;;;;;;13.02;4.60;;;16.40;18.90;;;;;;5099701;28;20244;-85
2022/10/30 00:03:18;;;;;;;10.30;5.03;;;16.50;44.40;;;;;;5107042;28;20199;-85
2022/10/30 00:05:47;;;;;;;12.85;4.85;;;16.50;1.00;;;;;;5096701;28;20228;-84
2022/10/30 00:08:17;;;;;;;10.27;5.28;;;16.60;1.00;;;;;;5091229;28;20196;-85
2022/10/30 00:10:45;;;;;;;9.80;4.75;;;16.60;1.00;;;;;;5091376;28;20228;-85
2022/10/30 00:13:13;;;;;;;14.02;5.70;;;16.70;1.00;;;;;;5091596;28;20206;-85
2022/10/30 00:15:40;;;;;;;12.88;4.90;;;16.50;1.00;;;;;;5103361;28;20564;-85
2022/10/30 00:18:06;;;;;;;11.20;5.47;;;16.40;1.00;;;;;;5096246;28;20193;-85
2022/10/30 00:20:36;;;;;;;16.00;5.13;;;16.40;1.00;;;;;;5109822;28;20301;-85
2022/10/30 00:23:04;;;;;;;11.02;5.60;;;16.30;79.10;;;;;;5111436;28;20192;-85
2022/10/30 00:25:31;;;;;;;12.05;5.05;;;16.10;99.90;;;;;;5095172;28;20225;-85
2022/10/30 00:27:57;;;;;;;14.40;5.75;;;16.20;99.90;;;;;;5102707;28;20197;-85
2022/10/30 00:30:24;;;;;;;17.48;5.53;;;16.30;99.90;;;;;;5109864;28;20217;-85
2022/10/30 00:32:51;;;;;;;10.10;4.78;;;16.30;99.90;;;;;;5092872;28;20668;-85
2022/10/30 00:35:18;;;;;;;9.85;5.05;;;16.30;99.90;;;;;;5091593;28;20200;-85
2022/10/30 00:37:44;;;;;;;13.10;5.25;;;16.10;99.90;;;;;;5109993;28;20652;-85
2022/10/30 00:40:16;;;;;;;9.32;5.07;;;16.40;31.80;;;;;;5110666;28;20321;-85
2022/10/30 00:42:43;;;;;;;11.65;5.03;;;16.40;1.00;;;;;;5110985;28;20203;-84
2022/10/30 00:45:11;;;;;;;10.15;4.90;;;16.50;1.00;;;;;;5111135;28;20220;-85
2022/10/30 00:47:42;;;;;;;12.70;4.85;;;16.40;1.00;;;;;;5111479;28;20213;-85
2022/10/30 00:50:12;;;;;;;13.68;4.60;;;16.40;1.00;;;;;;5111160;28;20221;-85
2022/10/30 00:52:42;;;;;;;10.35;4.72;;;16.30;1.00;;;;;;5109536;28;20201;-84
2022/10/30 00:55:13;;;;;;;12.05;5.03;;;16.50;1.00;;;;;;5108306;28;20192;-85
2022/10/30 00:57:43;;;;;;;13.05;5.00;;;16.60;1.00;;;;;;5110416;28;20216;-85
2022/10/30 01:00:12;;;;;;;8.00;4.85;;;16.50;1.00;;;;;;5094146;28;20241;-85
2022/10/30 01:02:41;;;;;;;12.05;4.85;;;16.40;1.00;;;;;;5090022;28;20194;-85
2022/10/30 01:05:09;;;;;;;14.23;5.30;;;16.30;1.00;;;;;;5117848;28;20206;-85
2022/10/30 01:07:35;;;;;;;13.82;5.72;;;16.40;1.00;;;;;;5104062;28;20568;-85
2022/10/30 01:10:02;;;;;;;12.15;5.07;;;16.50;1.00;;;;;;5090395;28;20712;-85
2022/10/30 01:12:29;;;;;;;16.23;5.28;;;16.40;1.00;;;;;;5093622;28;20578;-85
2022/10/30 01:15:00;;;;;;;9.48;4.80;;;16.40;1.00;;;;;;5101303;28;20203;-85
2022/10/30 01:17:51;;;;;;;12.32;5.18;;;16.80;1.00;;;;;;5102278;28;20676;-85
2022/10/30 01:20:38;;;;;;;10.40;4.45;;;16.80;1.00;;;;;;5091936;28;20243;-85
2022/10/30 01:23:17;;;;;;;9.40;4.80;;;16.90;1.00;;;;;;5108409;28;20201;-85
2022/10/30 01:25:53;;;;;;;9.35;4.82;;;16.90;1.00;;;;;;5112493;28;20224;-85
2022/10/30 01:28:39;;;;;;;10.02;4.80;;;16.80;99.90;;;;;;5115302;28;20205;-85
2022/10/30 01:31:18;;;;;;;8.98;4.57;;;16.70;1.00;;;;;;5103945;28;20225;-84
2022/10/30 01:33:55;;;;;;;10.55;4.90;;;16.70;99.90;;;;;;5109064;28;20203;-85
2022/10/30 01:36:29;;;;;;;14.43;5.57;;;16.60;99.90;;;;;;5111039;28;20193;-85
2022/10/30 01:38:59;;;;;;;13.57;5.10;;;16.80;1.00;;;;;;5107596;27;20645;-85
2022/10/30 01:41:26;;;;;;;12.55;5.05;;;16.70;1.00;;;;;;5105790;27;20197;-84
2022/10/30 01:43:56;;;;;;;10.98;5.25;;;16.60;99.90;;;;;;5117947;27;20270;-85
2022/10/30 01:46:41;;;;;;;14.80;5.13;;;16.60;1.00;;;;;;5108094;28;20217;-85
2022/10/30 01:49:33;;;;;;;14.52;4.63;;;16.50;1.00;;;;;;5108081;28;20228;-85
2022/10/30 01:52:10;;;;;;;8.18;5.05;;;16.40;1.00;;;;;;5097301;28;20248;-85
2022/10/30 01:54:43;;;;;;;10.68;4.63;;;16.40;1.00;;;;;;5108891;27;20205;-85
2022/10/30 01:57:17;;;;;;;15.20;4.93;;;16.20;1.00;;;;;;5110671;28;20203;-86
2022/10/30 01:59:49;;;;;;;12.75;5.00;;;16.30;1.00;;;;;;5107202;28;20235;-84
2022/10/30 02:02:18;;;;;;;11.27;4.93;;;16.20;1.00;;;;;;5118668;27;20208;-84
2022/10/30 02:04:45;;;;;;;10.23;5.18;;;16.10;99.90;;;;;;5107429;28;20197;-84
2022/10/30 02:07:12;;;;;;;12.00;5.00;;;16.10;99.90;;;;;;5111930;27;20217;-85
2022/10/30 02:09:40;;;;;;;9.82;4.95;;;16.00;99.90;;;;;;5115114;27;20228;-84
2022/10/30 02:12:08;;;;;;;14.70;5.30;;;15.90;99.90;;;;;;5112296;28;20649;-84
2022/10/30 02:14:39;;;;;;;8.73;4.88;;;15.90;99.90;;;;;;5112044;27;20579;-85
2022/10/30 02:17:10;;;;;;;12.27;5.03;;;15.90;99.90;;;;;;5111774;27;20559;-84
2022/10/30 02:19:38;;;;;;;11.85;4.85;;;16.00;99.90;;;;;;5111989;27;20217;-85
2022/10/30 02:22:06;;;;;;;12.10;5.45;;;15.90;99.90;;;;;;5104714;27;20189;-84
2022/10/30 02:24:33;;;;;;;10.43;4.88;;;16.00;99.90;;;;;;5111388;27;20205;-84
2022/10/30 02:27:00;;;;;;;11.30;5.55;;;16.00;99.90;;;;;;5107391;27;20231;-85
2022/10/30 02:29:27;;;;;;;13.52;5.70;;;16.10;99.90;;;;;;5111184;27;20217;-84
2022/10/30 02:31:54;;;;;;;12.77;5.43;;;16.10;99.90;;;;;;5112011;28;20200;-84
2022/10/30 02:34:21;;;;;;;12.25;5.47;;;16.10;99.90;;;;;;5110270;27;20649;-85
2022/10/30 02:36:48;;;;;;;11.18;6.05;;;16.10;99.90;;;;;;5111925;28;20257;-85
2022/10/30 02:39:16;;;;;;;9.85;5.15;;;16.00;99.90;;;;;;5107495;28;20731;-84
2022/10/30 02:41:43;;;;;;;14.10;5.20;;;16.00;99.90;;;;;;5111749;28;20291;-85
2022/10/30 02:44:10;;;;;;;9.63;5.10;;;16.00;99.90;;;;;;5110110;28;20211;-84
2022/10/30 02:46:37;;;;;;;14.00;5.88;;;15.80;99.90;;;;;;5112312;28;20311;-84
2022/10/30 02:49:04;;;;;;;10.35;4.88;;;15.80;99.90;;;;;;5110095;28;20227;-84
2022/10/30 02:51:31;;;;;;;12.38;5.32;;;15.80;99.90;;;;;;5111405;28;20213;-84
2022/10/30 02:53:58;;;;;;;14.77;5.57;;;15.70;99.90;;;;;;5114769;28;20736;-84
2022/10/30 02:56:27;;;;;;;14.00;5.82;;;15.80;99.90;;;;;;5114680;27;20665;-84
2022/10/30 02:58:55;;;;;;;11.43;5.55;;;15.80;99.90;;;;;;5109808;27;20193;-84
2022/10/30 03:01:21;;;;;;;11.20;5.07;;;15.80;99.90;;;;;;5110750;28;20223;-84
2022/10/30 03:03:48;;;;;;;11.70;5.40;;;15.70;99.90;;;;;;5107633;28;20208;-85
2022/10/30 03:06:17;;;;;;;11.98;5.38;;;15.70;99.90;;;;;;5109160;27;20596;-84
2022/10/30 03:08:44;;;;;;;12.05;5.47;;;15.70;99.90;;;;;;5110997;27;20220;-85
2022/10/30 03:11:13;;;;;;;13.40;5.75;;;15.60;99.90;;;;;;5105992;28;20201;-84
2022/10/30 03:13:42;;;;;;;11.43;5.25;;;15.40;99.90;;;;;;5114423;27;20222;-85
2022/10/30 03:16:11;;;;;;;14.02;5.40;;;15.40;99.90;;;;;;5111515;27;20197;-84
2022/10/30 03:18:38;;;;;;;12.88;5.68;;;15.40;99.90;;;;;;5114921;28;20217;-85
2022/10/30 03:21:07;;;;;;;10.70;5.60;;;15.50;99.90;;;;;;5111512;28;20232;-84
2022/10/30 03:23:35;;;;;;;14.73;5.55;;;15.50;99.90;;;;;;5114088;28;20193;-84
2022/10/30 03:26:02;;;;;;;11.23;5.68;;;15.50;99.90;;;;;;5115373;28;20316;-84
2022/10/30 03:28:30;;;;;;;13.70;5.25;;;15.50;99.90;;;;;;5109288;28;20193;-84
2022/10/30 03:31:04;;;;;;;15.50;6.35;;;15.50;99.90;;;;;;5106775;28;20216;-85
2022/10/30 03:33:31;;;;;;;12.52;5.93;;;15.50;99.90;;;;;;5112099;28;20203;-84
2022/10/30 03:35:58;;;;;;;10.18;4.90;;;15.40;99.90;;;;;;5115625;28;20194;-84
2022/10/30 03:38:25;;;;;;;13.13;5.95;;;15.40;99.90;;;;;;5113685;27;20645;-84
2022/10/30 03:40:52;;;;;;;12.80;5.38;;;15.40;99.90;;;;;;5111702;28;20662;-84
2022/10/30 03:43:20;;;;;;;8.65;5.00;;;15.50;99.90;;;;;;5101834;28;20197;-84
2022/10/30 03:45:48;;;;;;;11.80;5.40;;;15.40;99.90;;;;;;5109800;28;20567;-84
2022/10/30 03:48:17;;;;;;;10.85;5.32;;;15.40;99.90;;;;;;5114734;28;20254;-84
2022/10/30 03:50:44;;;;;;;11.27;5.28;;;15.50;99.90;;;;;;5111268;28;20657;-84
2022/10/30 03:53:11;;;;;;;10.50;5.65;;;15.40;99.90;;;;;;5112513;28;20264;-84
2022/10/30 03:55:38;;;;;;;11.23;4.90;;;15.20;99.90;;;;;;5108141;28;20205;-84
2022/10/30 03:58:05;;;;;;;11.00;5.22;;;15.20;99.90;;;;;;5115000;28;20752;-84
2022/10/30 04:00:33;;;;;;;13.40;5.25;;;15.30;99.90;;;;;;5113798;28;20721;-84
2022/10/30 04:03:00;;;;;;;11.70;5.03;;;15.30;99.90;;;;;;5112380;28;20205;-84
2022/10/30 04:05:29;;;;;;;13.02;5.30;;;15.40;99.90;;;;;;5112141;27;20667;-84
2022/10/30 04:07:57;;;;;;;14.50;5.82;;;15.50;99.90;;;;;;5109989;28;20227;-84
2022/10/30 04:10:24;;;;;;;11.40;5.43;;;15.60;99.90;;;;;;5107221;28;20224;-84
2022/10/30 04:12:51;;;;;;;11.75;5.28;;;15.50;99.90;;;;;;5105326;28;20525;-84
2022/10/30 04:15:19;;;;;;;11.38;4.93;;;15.30;99.90;;;;;;5110871;28;20216;-84
2022/10/30 04:17:50;;;;;;;12.63;5.35;;;15.30;99.90;;;;;;5107858;28;20195;-84
2022/10/30 04:20:17;;;;;;;12.98;5.43;;;15.10;99.90;;;;;;5110987;27;20216;-85
2022/10/30 04:22:46;;;;;;;9.57;5.45;;;15.10;99.90;;;;;;5105875;27;20201;-84
2022/10/30 04:25:14;;;;;;;12.27;5.57;;;15.00;99.90;;;;;;5110391;28;20201;-84
2022/10/30 04:27:41;;;;;;;9.82;5.57;;;15.00;99.90;;;;;;5103169;28;20224;-84
2022/10/30 04:30:10;;;;;;;11.93;5.25;;;15.00;99.90;;;;;;5108760;28;20590;-84
2022/10/30 04:32:37;;;;;;;10.50;5.03;;;15.00;99.90;;;;;;5103069;27;20730;-85
2022/10/30 04:35:04;;;;;;;12.15;5.45;;;15.00;99.90;;;;;;5105969;27;20671;-84
2022/10/30 04:37:31;;;;;;;13.02;5.38;;;14.90;99.90;;;;;;5109452;28;20349;-84
2022/10/30 04:39:59;;;;;;;9.93;5.13;;;14.80;99.90;;;;;;5113201;28;20217;-84
2022/10/30 04:42:26;;;;;;;8.05;5.07;;;14.90;99.90;;;;;;5109810;28;20208;-85
2022/10/30 04:44:53;;;;;;;10.68;5.63;;;14.70;99.90;;;;;;5111407;28;20197;-84
2022/10/30 04:47:20;;;;;;;17.45;5.57;;;14.60;99.90;;;;;;5102105;28;20752;-84
2022/10/30 04:49:47;;;;;;;11.68;5.28;;;14.50;99.90;;;;;;5107173;28;20303;-84
2022/10/30 04:52:14;;;;;;;10.82;5.10;;;14.50;99.90;;;;;;5110344;28;20667;-85
2022/10/30 04:54:41;;;;;;;12.18;5.10;;;14.50;99.90;;;;;;5120771;27;20669;-85
2022/10/30 04:57:09;;;;;;;12.27;5.97;;;14.30;99.90;;;;;;5113172;27;20208;-84
2022/10/30 04:59:36;;;;;;;14.93;5.13;;;14.30;99.90;;;;;;5118158;27;20719;-84
2022/10/30 05:02:03;;;;;;;13.65;5.20;;;14.20;99.90;;;;;;5122207;27;20205;-84
2022/10/30 05:04:30;;;;;;;13.18;5.68;;;14.20;99.90;;;;;;5117849;27;20282;-84
2022/10/30 05:06:56;;;;;;;13.55;6.53;;;14.10;99.90;;;;;;5120684;28;20212;-84
2022/10/30 05:09:23;;;;;;;10.73;5.93;;;14.20;99.90;;;;;;5114455;27;20229;-84
2022/10/30 05:11:50;;;;;;;14.27;5.37;;;14.20;99.90;;;;;;5120290;28;20657;-84
2022/10/30 05:14:18;;;;;;;8.32;5.20;;;14.10;99.90;;;;;;5117185;28;20209;-84
2022/10/30 05:16:45;;;;;;;11.95;5.00;;;14.20;99.90;;;;;;5117402;27;20289;-84
2022/10/30 05:19:12;;;;;;;13.03;5.23;;;14.10;99.90;;;;;;5110201;28;20224;-84
2022/10/30 05:21:38;;;;;;;10.93;5.30;;;13.70;99.90;;;;;;5117439;28;20673;-84
2022/10/30 05:24:06;;;;;;;14.13;5.60;;;13.60;99.90;;;;;;5118864;28;20203;-84
2022/10/30 05:26:33;;;;;;;12.17;5.90;;;13.60;99.90;;;;;;5114598;28;20215;-84
2022/10/30 05:29:01;;;;;;;12.30;5.60;;;13.70;99.90;;;;;;5110766;28;20212;-85
2022/10/30 05:31:29;;;;;;;12.30;5.60;;;13.90;99.90;;;;;;5103539;28;20769;-84
2022/10/30 05:33:56;;;;;;;11.60;5.07;;;13.80;99.90;;;;;;5108329;28;20653;-85
2022/10/30 05:36:22;;;;;;;9.57;5.10;;;13.70;99.90;;;;;;5113008;28;20197;-84
2022/10/30 05:38:49;;;;;;;14.23;5.63;;;13.80;99.90;;;;;;5113836;27;20198;-85
2022/10/30 05:41:16;;;;;;;9.00;4.93;;;13.80;99.90;;;;;;5104619;28;20193;-84
2022/10/30 05:43:43;;;;;;;11.27;5.72;;;13.70;99.90;;;;;;5112747;28;20208;-85
2022/10/30 05:46:10;;;;;;;16.90;5.40;;;13.60;99.90;;;;;;5111637;27;20211;-85
2022/10/30 05:48:38;;;;;;;14.50;6.10;;;13.40;99.90;;;;;;5109686;28;20312;-85
2022/10/30 05:51:07;;;;;;;16.57;5.80;;;13.50;99.90;;;;;;5108873;28;20277;-84
2022/10/30 05:53:34;;;;;;;11.73;5.27;;;13.40;99.90;;;;;;5110369;28;20228;-84
2022/10/30 05:56:00;;;;;;;12.47;5.23;;;13.60;99.90;;;;;;5110479;28;20196;-85
2022/10/30 05:58:27;;;;;;;13.87;6.57;;;13.60;99.90;;;;;;5108057;28;20205;-84
2022/10/30 06:00:54;;;;;;;13.93;5.60;;;13.60;99.90;;;;;;5117224;28;20224;-84
2022/10/30 06:03:21;;;;;;;12.80;5.50;;;13.50;99.90;;;;;;5109505;28;20202;-84
2022/10/30 06:05:49;;;;;;;15.60;5.63;;;13.30;99.90;;;;;;5119639;28;20732;-84
2022/10/30 06:08:16;;;;;;;10.37;5.00;;;12.60;99.90;;;;;;5114356;28;20217;-84
2022/10/30 06:10:43;;;;;;;11.60;5.63;;;12.30;99.90;;;;;;5113557;28;20719;-83
2022/10/30 06:13:10;;;;;;;10.67;5.57;;;12.40;99.90;;;;;;5113311;28;20197;-84
2022/10/30 06:15:37;;;;;;;12.40;5.27;;;12.60;99.90;;;;;;5117265;28;20197;-82
2022/10/30 06:18:04;;;;;;;13.70;5.37;;;12.60;99.90;;;;;;5114831;28;20269;-85
2022/10/30 06:20:32;;;;;;;17.00;8.07;;;12.80;99.90;;;;;;5116190;28;20680;-88
2022/10/30 06:23:02;;;;;;;16.90;9.30;;;12.90;99.90;;;;;;5115459;28;20207;-85
2022/10/30 06:25:30;;;;;;;16.80;6.70;;;12.80;99.90;;;;;;5106331;28;20201;-86
2022/10/30 06:27:57;;;;;;;12.93;6.47;;;12.70;99.90;;;;;;5112124;28;20249;-86
2022/10/30 06:30:24;;;;;;;13.40;5.73;;;12.60;99.90;;;;;;5119443;28;20274;-86
2022/10/30 06:32:56;;;;;;;25.97;14.83;;;12.40;99.90;;;;;;5121878;27;20206;-85
2022/10/30 06:35:23;;;;;;;15.43;9.87;;;12.30;99.90;;;;;;5119841;28;20196;-85
2022/10/30 06:37:52;;;;;;;11.87;5.40;;;12.40;99.90;;;;;;5114223;28;20193;-85
2022/10/30 06:40:20;;;;;;;12.20;5.50;;;12.70;99.90;;;;;;5107487;28;20226;-86
2022/10/30 06:42:49;;;;;;;10.20;5.00;;;12.70;99.90;;;;;;5111539;28;20216;-85
2022/10/30 06:45:17;;;;;;;14.27;5.97;;;12.80;99.90;;;;;;5109451;28;20200;-85
2022/10/30 06:47:44;;;;;;;11.57;5.63;;;12.90;99.90;;;;;;5108745;28;20692;-85
2022/10/30 06:50:13;;;;;;;15.80;6.30;;;13.00;99.90;;;;;;5064513;28;1236685;-86
2022/10/30 06:52:40;;;;;;;9.27;5.27;;;13.20;99.90;;;;;;5108280;27;20280;-84
2022/10/30 06:55:08;;;;;;;9.40;5.47;;;13.20;99.90;;;;;;5107431;27;20197;-86
2022/10/30 06:57:37;;;;;;;14.60;6.00;;;13.10;99.90;;;;;;5109243;28;20289;-85
2022/10/30 07:00:05;;;;;;;10.10;5.63;;;13.20;99.90;;;;;;5110236;27;20219;-86
2022/10/30 07:02:32;;;;;;;15.33;6.63;;;13.20;99.90;;;;;;5108384;27;20200;-86
2022/10/30 07:04:59;;;;;;;12.50;5.77;;;13.20;99.90;;;;;;5114039;27;20215;-86
2022/10/30 07:07:25;;;;;;;9.80;5.13;;;13.20;99.90;;;;;;5110311;27;20240;-83
2022/10/30 07:09:52;;;;;;;13.63;6.40;;;13.30;99.90;;;;;;5109910;28;20228;-85
2022/10/30 07:12:19;;;;;;;16.70;6.23;;;13.40;99.90;;;;;;5110860;28;20193;-86
2022/10/30 07:14:47;;;;;;;10.00;5.23;;;13.50;99.90;;;;;;5113737;28;20205;-85
2022/10/30 07:17:14;;;;;;;9.33;5.47;;;13.50;99.90;;;;;;5111763;28;20207;-85
2022/10/30 07:19:41;;;;;;;13.70;6.10;;;13.70;99.90;;;;;;5112534;27;20235;-87
2022/10/30 07:22:08;;;;;;;20.43;6.53;;;13.80;99.90;;;;;;5107314;28;20203;-85
2022/10/30 07:24:35;;;;;;;14.00;5.73;;;13.80;99.90;;;;;;5111118;27;20204;-85
2022/10/30 07:27:01;;;;;;;15.10;6.13;;;13.80;99.90;;;;;;5106331;28;20189;-85
2022/10/30 07:29:28;;;;;;;9.80;5.80;;;14.30;99.90;;;;;;5115019;27;20221;-84
2022/10/30 07:31:57;;;;;;;12.97;6.10;;;14.40;99.90;;;;;;5111519;28;20189;-85
2022/10/30 07:34:24;;;;;;;11.43;5.57;;;14.30;99.90;;;;;;5113127;27;20610;-86
2022/10/30 07:36:50;;;;;;;11.13;5.10;;;14.40;99.90;;;;;;5106540;27;20266;-86
2022/10/30 07:39:17;;;;;;;15.23;5.77;;;14.60;99.90;;;;;;5112454;28;20225;-86
2022/10/30 07:41:44;;;;;;;12.55;5.15;;;14.60;99.90;;;;;;5115818;27;20215;-86
2022/10/30 07:44:11;;;;;;;13.80;6.00;;;14.50;99.90;;;;;;5114233;28;20193;-83
2022/10/30 07:46:38;;;;;;;11.40;5.32;;;14.70;99.90;;;;;;5114810;28;20205;-86
2022/10/30 07:49:06;;;;;;;10.07;5.35;;;14.60;99.90;;;;;;5113153;27;20225;-85
2022/10/30 07:51:33;;;;;;;11.45;5.80;;;14.70;99.90;;;;;;5115096;28;20212;-87
2022/10/30 07:53:59;;;;;;;14.88;5.78;;;14.80;99.90;;;;;;5113174;28;20621;-85
2022/10/30 07:56:26;;;;;;;14.00;5.65;;;14.80;99.90;;;;;;5117515;27;20265;-86
2022/10/30 07:58:53;;;;;;;9.52;5.03;;;15.10;99.90;;;;;;5110873;27;20641;-86
2022/10/30 08:01:20;;;;;;;15.23;5.00;;;15.40;99.90;;;;;;5116152;27;20197;-85
2022/10/30 08:03:47;;;;;;;14.05;5.38;;;15.50;99.90;;;;;;5114249;28;20197;-85
2022/10/30 08:06:15;;;;;;;33.13;21.17;;;15.50;99.90;;;;;;5119422;27;20283;-85
2022/10/30 08:08:42;;;;;;;21.92;11.23;;;15.30;99.90;;;;;;5104629;28;20587;-85
2022/10/30 08:11:08;;;;;;;14.95;7.03;;;15.60;99.90;;;;;;5113377;28;20216;-82
2022/10/30 08:13:35;;;;;;;10.85;5.68;;;15.90;99.90;;;;;;5117748;27;20215;-84
2022/10/30 08:16:02;;;;;;;13.57;5.78;;;15.80;99.90;;;;;;5114862;27;20211;-85
2022/10/30 08:18:29;;;;;;;13.77;5.75;;;15.80;99.90;;;;;;5117229;27;20292;-86
2022/10/30 08:20:56;;;;;;;11.90;5.85;;;16.10;99.90;;;;;;5109758;27;20235;-86
2022/10/30 08:23:24;;;;;;;10.43;5.05;;;16.10;99.90;;;;;;5112100;28;20199;-85
2022/10/30 08:25:51;;;;;;;12.60;5.05;;;16.00;99.90;;;;;;5112668;28;20200;-88
2022/10/30 08:28:17;;;;;;;13.68;5.18;;;16.00;99.90;;;;;;5108355;28;20217;-87
2022/10/30 08:30:44;;;;;;;12.60;5.38;;;16.60;99.90;;;;;;5107185;28;20220;-86
2022/10/30 08:33:13;;;;;;;14.98;5.65;;;16.60;99.90;;;;;;5111893;28;20200;-86
2022/10/30 08:35:47;;;;;;;12.38;5.03;;;16.70;99.90;;;;;;5109643;28;20193;-86
2022/10/30 08:38:14;;;;;;;14.15;5.45;;;16.90;99.90;;;;;;5109630;28;20668;-87
2022/10/30 08:40:42;;;;;;;16.75;5.57;;;16.90;99.90;;;;;;5109611;28;20657;-86
2022/10/30 08:43:12;;;;;;;11.80;4.97;;;17.10;99.90;;;;;;5109062;28;20212;-86
2022/10/30 08:45:40;;;;;;;9.75;4.53;;;17.20;99.90;;;;;;5108943;28;20211;-87
2022/10/30 08:48:10;;;;;;;10.38;4.93;;;17.50;1.00;;;;;;5110712;28;20595;-86
2022/10/30 08:50:36;;;;;;;16.00;5.95;;;17.70;1.00;;;;;;5109576;28;20229;-86
2022/10/30 08:53:04;;;;;;;10.05;5.20;;;17.60;1.00;;;;;;5117456;28;20209;-88
2022/10/30 08:55:32;;;;;;;10.15;5.43;;;17.60;1.00;;;;;;5115773;28;20195;-84
2022/10/30 08:58:01;;;;;;;13.07;4.82;;;17.60;1.00;;;;;;5118759;28;20287;-85
2022/10/30 09:00:29;;;;;;;12.27;5.13;;;17.60;1.00;;;;;;5119982;28;20245;-86
2022/10/30 09:02:56;;;;;;;10.30;4.47;;;17.70;1.00;;;;;;5114123;28;20197;-84
2022/10/30 09:05:23;;;;;;;12.25;5.38;;;17.80;1.00;;;;;;5119914;28;20201;-87
2022/10/30 09:07:55;;;;;;;13.23;4.82;;;17.90;99.90;;;;;;5109713;28;20227;-86
2022/10/30 09:10:21;;;;;;;13.10;5.32;;;18.20;1.00;;;;;;5112704;28;20595;-86
2022/10/30 09:12:53;;;;;;;13.90;4.53;;;18.40;1.00;;;;;;5111284;28;20211;-86
2022/10/30 09:15:21;;;;;;;12.85;4.93;;;18.50;1.00;;;;;;5107025;28;20208;-86
2022/10/30 09:17:48;;;;;;;9.60;4.53;;;18.60;1.00;;;;;;5108801;28;20211;-87
2022/10/30 09:20:15;;;;;;;11.45;4.25;;;18.70;1.00;;;;;;5110372;28;20227;-88
2022/10/30 09:22:42;;;;;;;11.63;4.68;;;18.90;1.00;;;;;;5111228;28;20205;-87
2022/10/30 09:25:09;;;;;;;10.98;4.95;;;19.00;1.00;;;;;;5110493;28;20193;-88
2022/10/30 09:27:37;;;;;;;9.32;4.43;;;18.90;1.00;;;;;;5105652;28;20196;-87
2022/10/30 09:30:06;;;;;;;12.85;4.72;;;19.10;99.90;;;;;;5114055;28;20212;-87
2022/10/30 09:32:37;;;;;;;16.40;6.65;;;19.20;1.00;;;;;;5111169;28;20197;-86
2022/10/30 09:35:04;;;;;;;11.52;5.07;;;19.20;1.00;;;;;;5107045;28;20276;-86
2022/10/30 09:37:34;;;;;;;14.75;5.07;;;19.30;29.00;;;;;;5113088;28;20276;-86
2022/10/30 09:40:03;;;;;;;12.48;5.00;;;19.30;1.00;;;;;;5105680;28;20247;-87
2022/10/30 09:42:42;;;;;;;9.38;4.43;;;19.40;1.00;;;;;;5112225;27;20676;-86
2022/10/30 09:45:29;;;;;;;9.45;4.57;;;19.60;99.90;;;;;;5113929;28;20581;-87
2022/10/30 09:48:11;;;;;;;13.85;4.88;;;19.80;99.90;;;;;;5111550;28;20245;-86
2022/10/30 09:50:45;;;;;;;9.15;4.68;;;20.00;1.00;;;;;;5114750;27;20232;-86
2022/10/30 09:53:22;;;;;;;16.67;4.65;;;20.00;99.90;;;;;;5120673;27;20204;-86
2022/10/30 09:55:57;;;;;;;11.82;4.97;;;20.10;99.90;;;;;;5112522;28;20213;-86
2022/10/30 09:58:33;;;;;;;9.40;4.47;;;20.30;1.00;;;;;;5105290;27;20598;-85
2022/10/30 10:01:10;;;;;;;7.65;4.43;;;20.70;1.00;;;;;;5114070;27;20225;-84
2022/10/30 10:04:00;;;;;;;12.07;4.68;;;20.90;1.00;;;;;;5120017;27;20279;-86
2022/10/30 10:06:28;;;;;;;13.07;5.22;;;21.00;1.00;;;;;;5120201;27;20269;-86
2022/10/30 10:09:01;;;;;;;12.50;4.75;;;21.20;99.90;;;;;;5114922;27;20220;-85
2022/10/30 10:11:31;;;;;;;12.10;5.07;;;21.30;99.90;;;;;;5117102;27;20194;-85
2022/10/30 10:14:07;;;;;;;8.95;4.30;;;21.50;99.90;;;;;;5110040;27;20201;-85
2022/10/30 10:16:36;;;;;;;14.45;4.53;;;21.60;99.90;;;;;;5126577;27;20196;-86
2022/10/30 10:19:10;;;;;;;12.55;4.35;;;21.60;99.90;;;;;;5114974;27;20760;-86
2022/10/30 10:21:43;;;;;;;14.63;5.45;;;21.90;1.00;;;;;;5115859;27;20211;-87
2022/10/30 10:24:16;;;;;;;13.48;5.30;;;21.90;1.00;;;;;;5112041;28;20201;-86
2022/10/30 10:26:48;;;;;;;13.07;5.15;;;22.00;1.00;;;;;;5115693;27;20197;-88
2022/10/30 10:29:32;;;;;;;15.93;5.70;;;22.00;1.00;;;;;;5115078;27;20308;-87
2022/10/30 10:32:21;;;;;;;12.65;4.78;;;22.10;1.00;;;;;;5110362;27;20200;-88
2022/10/30 10:35:04;;;;;;;11.52;4.65;;;22.10;1.00;;;;;;5107281;27;20216;-87
2022/10/30 10:37:39;;;;;;;9.68;4.30;;;22.20;1.00;;;;;;5111761;27;20200;-87
2022/10/30 10:40:33;;;;;;;11.35;4.78;;;22.40;1.00;;;;;;5107964;27;20213;-88
2022/10/30 10:43:13;;;;;;;12.93;5.28;;;22.30;59.50;;;;;;5108465;28;20204;-87
2022/10/30 10:45:48;;;;;;;10.35;4.38;;;22.20;1.00;;;;;;5110261;27;20660;-88
2022/10/30 10:48:45;;;;;;;12.50;4.35;;;22.30;1.00;;;;;;5112387;28;20201;-89
2022/10/30 10:51:18;;;;;;;11.77;4.30;;;22.60;1.00;;;;;;5106922;28;20284;-87
2022/10/30 10:53:50;;;;;;;13.82;5.00;;;22.60;1.00;;;;;;5109410;27;20515;-87
2022/10/30 10:56:20;;;;;;;13.40;4.65;;;22.40;1.00;;;;;;5112079;28;20213;-87
2022/10/30 10:58:51;;;;;;;12.20;5.00;;;22.20;1.00;;;;;;5114810;27;20209;-86
2022/10/30 11:01:22;;;;;;;11.32;4.28;;;22.10;1.00;;;;;;5111480;27;20661;-87
2022/10/30 11:03:56;;;;;;;13.82;4.75;;;22.20;1.00;;;;;;5107153;27;20197;-87
2022/10/30 11:06:27;;;;;;;20.83;5.43;;;22.50;1.00;;;;;;5111414;27;20205;-87
2022/10/30 11:09:01;;;;;;;11.70;4.93;;;22.50;1.00;;;;;;5107565;28;20259;-87
2022/10/30 11:11:28;;;;;;;11.45;5.10;;;22.70;1.00;;;;;;5108995;28;20205;-87
2022/10/30 11:13:55;;;;;;;13.43;4.60;;;22.90;1.00;;;;;;5121810;27;20203;-87
2022/10/30 11:16:29;;;;;;;12.52;4.82;;;23.00;1.00;;;;;;5115647;27;20209;-87
2022/10/30 11:18:59;;;;;;;13.48;4.50;;;23.10;1.00;;;;;;5108547;27;20201;-87
2022/10/30 11:21:31;;;;;;;16.80;5.05;;;23.20;1.00;;;;;;5108872;27;20280;-88
2022/10/30 11:23:58;;;;;;;12.02;4.70;;;23.40;1.00;;;;;;5106096;27;20198;-88
2022/10/30 11:26:31;;;;;;;13.15;5.13;;;23.50;1.00;;;;;;5108831;28;20205;-88
2022/10/30 11:29:03;;;;;;;8.95;4.82;;;23.70;1.00;;;;;;5111888;27;20266;-88
2022/10/30 11:31:34;;;;;;;13.80;4.38;;;23.90;1.00;;;;;;5111933;27;20201;-87
2022/10/30 11:34:23;;;;;;;9.55;4.40;;;23.90;1.00;;;;;;5111974;27;20637;-87
2022/10/30 11:36:53;;;;;;;9.65;5.03;;;23.60;99.90;;;;;;5109421;28;20231;-89
2022/10/30 11:39:22;;;;;;;13.15;4.53;;;23.80;99.90;;;;;;5107087;27;20213;-89
2022/10/30 11:41:56;;;;;;;13.18;4.95;;;24.00;99.90;;;;;;5105658;28;20197;-89
2022/10/30 11:44:27;;;;;;;12.85;4.55;;;24.10;99.90;;;;;;5107882;27;20208;-88
2022/10/30 11:46:54;;;;;;;11.65;4.18;;;24.30;99.90;;;;;;5117578;27;20199;-88
2022/10/30 11:49:33;;;;;;;11.43;4.53;;;24.40;99.90;;;;;;5102986;28;20224;-87
2022/10/30 11:52:02;;;;;;;11.60;4.80;;;24.50;99.90;;;;;;5105223;28;20212;-86
2022/10/30 11:54:29;;;;;;;13.02;4.38;;;24.60;99.90;;;;;;5104810;27;20208;-88
2022/10/30 11:56:57;;;;;;;11.90;4.72;;;24.70;99.90;;;;;;5116578;27;20192;-88
2022/10/30 11:59:25;;;;;;;10.20;4.60;;;24.80;99.90;;;;;;5111724;28;20704;-87
2022/10/30 12:02:00;;;;;;;11.65;4.70;;;24.40;99.90;;;;;;5110122;28;20560;-87
2022/10/30 12:04:31;;;;;;;11.80;4.05;;;24.80;99.90;;;;;;5115825;27;20279;-88
2022/10/30 12:07:16;;;;;;;11.60;4.35;;;26.50;99.90;;;;;;5104184;27;20239;-87
2022/10/30 12:09:44;;;;;;;12.93;4.95;;;27.20;99.90;;;;;;5105155;28;20233;-89
2022/10/30 12:12:12;;;;;;;8.52;4.30;;;27.60;99.90;;;;;;5105196;28;20208;-90
2022/10/30 12:14:39;;;;;;;12.30;4.93;;;28.10;99.90;;;;;;5110539;27;20205;-89
2022/10/30 12:17:06;;;;;;;9.75;4.80;;;27.80;99.90;;;;;;5111228;27;20196;-88
2022/10/30 12:19:33;;;;;;;11.00;5.32;;;28.00;99.90;;;;;;5111656;27;20709;-88
2022/10/30 12:22:01;;;;;;;7.70;4.22;;;27.70;99.90;;;;;;5105519;28;20594;-89
2022/10/30 12:24:32;;;;;;;10.02;4.85;;;28.10;99.90;;;;;;5108442;28;20689;-90
2022/10/30 12:27:02;;;;;;;11.65;4.63;;;28.30;99.90;;;;;;5108539;27;20826;-89
2022/10/30 12:29:40;;;;;;;15.45;4.75;;;28.30;99.90;;;;;;5107497;28;20225;-89
2022/10/30 12:32:14;;;;;;;7.50;4.40;;;28.40;99.90;;;;;;5106182;28;20212;-88
2022/10/30 12:34:46;;;;;;;10.25;4.38;;;28.00;99.90;;;;;;5109815;28;20204;-89
2022/10/30 12:37:18;;;;;;;12.55;4.50;;;28.00;99.90;;;;;;5113618;27;20212;-89
2022/10/30 12:39:57;;;;;;;9.38;4.32;;;28.10;99.90;;;;;;5106266;27;20216;-89
2022/10/30 12:42:25;;;;;;;14.85;4.60;;;28.60;99.90;;;;;;5112285;28;20637;-90
2022/10/30 12:45:07;;;;;;;13.75;4.63;;;28.50;99.90;;;;;;5106553;28;20291;-90
2022/10/30 12:47:39;;;;;;;12.70;4.60;;;28.80;99.90;;;;;;5109825;28;20208;-91
2022/10/30 12:50:16;;;;;;;9.93;4.22;;;28.60;99.90;;;;;;5113018;28;20308;-89
2022/10/30 12:52:46;;;;;;;12.65;4.95;;;28.50;99.90;;;;;;5108741;28;20201;-90